createdAt,value
2019-03-25T00:00:46.567Z,78.41
2019-03-25T00:03:18.830Z,77.71
2019-03-25T00:05:49.467Z,77.19
2019-03-25T00:08:20.153Z,78.97
2019-03-25T00:10:50.794Z,79.17
2019-03-25T00:13:21.436Z,78.42
2019-03-25T00:15:52.125Z,77.32
2019-03-25T00:18:22.736Z,78.73
2019-03-25T00:20:53.788Z,80.23
2019-03-25T00:23:25.495Z,79.30
2019-03-25T00:25:56.175Z,78.77
2019-03-25T00:28:26.807Z,79.81
2019-03-25T00:30:57.468Z,78.62
2019-03-25T00:33:28.098Z,77.25
2019-03-25T00:35:59.026Z,78.79
2019-03-25T00:38:29.686Z,77.96
2019-03-25T00:41:00.371Z,78.21
2019-03-25T00:43:31.271Z,78.67
2019-03-25T00:46:02.179Z,78.68
2019-03-25T00:48:33.150Z,78.94
2019-03-25T00:51:03.822Z,78.33
2019-03-25T00:53:34.818Z,78.47
2019-03-25T00:56:05.496Z,78.66
2019-03-25T00:58:36.144Z,78.78
2019-03-25T01:01:06.991Z,78.61
2019-03-25T01:03:37.650Z,78.42
2019-03-25T01:06:08.568Z,79.31
2019-03-25T01:08:39.268Z,79.05
2019-03-25T01:11:09.962Z,79.33
2019-03-25T01:13:40.597Z,79.43
2019-03-25T01:16:11.252Z,79.64
2019-03-25T01:18:41.880Z,79.13
2019-03-25T01:21:12.538Z,79.01
2019-03-25T01:23:43.174Z,79.39
2019-03-25T01:26:13.864Z,79.51
2019-03-25T01:28:44.490Z,79.75
2019-03-25T01:31:15.179Z,79.88
2019-03-25T01:33:46.781Z,80.18
2019-03-25T01:36:18.384Z,80.05
2019-03-25T01:38:49.013Z,81.30
2019-03-25T01:41:19.700Z,80.53
2019-03-25T01:43:50.427Z,81.27
2019-03-25T01:46:21.084Z,80.55
2019-03-25T01:48:52.981Z,80.07
2019-03-25T01:51:23.927Z,79.97
2019-03-25T01:53:54.795Z,79.87
2019-03-25T01:56:25.460Z,79.95
2019-03-25T01:58:56.085Z,80.48
2019-03-25T02:01:28.412Z,80.61
2019-03-25T02:03:59.014Z,80.65
2019-03-25T02:06:29.953Z,80.96
2019-03-25T02:09:00.607Z,80.74
2019-03-25T02:11:32.466Z,80.75
2019-03-25T02:14:03.112Z,80.54
2019-03-25T02:16:35.710Z,81.08
2019-03-25T02:19:06.094Z,81.21
2019-03-25T02:21:37.066Z,80.87
2019-03-25T02:24:08.665Z,80.40
2019-03-25T02:26:41.106Z,79.93
2019-03-25T02:29:11.755Z,80.37
2019-03-25T02:31:42.725Z,80.47
2019-03-25T02:34:13.361Z,80.71
2019-03-25T02:36:44.017Z,80.70
2019-03-25T02:39:14.662Z,80.58
2019-03-25T02:41:45.356Z,80.14
2019-03-25T02:44:15.982Z,80.50
2019-03-25T02:46:46.618Z,80.89
2019-03-25T02:49:17.812Z,81.29
2019-03-25T02:51:48.790Z,81.28
2019-03-25T02:54:19.778Z,81.49
2019-03-25T02:56:50.451Z,83.92
2019-03-25T02:59:21.135Z,83.15
2019-03-25T03:01:52.758Z,81.96
2019-03-25T03:04:23.593Z,81.52
2019-03-25T03:06:54.238Z,81.32
2019-03-25T03:09:25.111Z,81.19
2019-03-25T03:11:55.755Z,81.37
2019-03-25T03:14:26.379Z,80.95
2019-03-25T03:16:57.053Z,81.44
2019-03-25T03:19:27.698Z,81.74
2019-03-25T03:21:58.621Z,81.17
2019-03-25T03:24:29.240Z,80.67
2019-03-25T03:26:59.929Z,80.98
2019-03-25T03:29:30.569Z,80.44
2019-03-25T03:32:01.259Z,81.18
2019-03-25T03:34:31.858Z,81.15
2019-03-25T03:37:03.468Z,81.54
2019-03-25T03:39:34.120Z,80.99
2019-03-25T03:42:04.985Z,81.49
2019-03-25T03:44:35.600Z,80.99
2019-03-25T03:47:06.274Z,81.23
2019-03-25T03:49:37.893Z,80.72
2019-03-25T03:52:08.548Z,80.93
2019-03-25T03:54:40.644Z,81.42
2019-03-25T03:57:11.580Z,81.91
2019-03-25T03:59:43.104Z,83.27
2019-03-25T04:02:13.767Z,82.70
2019-03-25T04:04:44.413Z,82.52
2019-03-25T04:07:15.072Z,82.46
2019-03-25T04:09:45.715Z,81.89
2019-03-25T04:12:16.781Z,81.18
2019-03-25T04:14:47.602Z,81.13
2019-03-25T04:17:18.262Z,80.68
2019-03-25T04:19:48.952Z,81.38
2019-03-25T04:22:19.882Z,80.61
2019-03-25T04:24:50.514Z,81.24
2019-03-25T04:27:23.711Z,81.64
2019-03-25T04:29:54.614Z,80.85
2019-03-25T04:32:25.268Z,79.18
2019-03-25T04:34:56.708Z,79.76
2019-03-25T04:37:27.380Z,80.62
2019-03-25T04:39:58.057Z,80.64
2019-03-25T04:42:29.000Z,80.34
2019-03-25T04:44:59.631Z,80.75
2019-03-25T04:47:30.293Z,80.53
2019-03-25T04:50:01.255Z,80.31
2019-03-25T04:52:31.906Z,80.48
2019-03-25T04:55:02.538Z,79.25
2019-03-25T04:57:33.917Z,78.33
2019-03-25T05:00:06.029Z,77.54
2019-03-25T05:02:36.683Z,77.61
2019-03-25T05:05:08.714Z,77.95
2019-03-25T05:07:39.411Z,77.97
2019-03-25T05:10:10.469Z,77.21
2019-03-25T05:12:41.405Z,76.19
2019-03-25T05:15:12.301Z,75.57
2019-03-25T05:17:43.215Z,75.61
2019-03-25T05:20:13.930Z,74.73
2019-03-25T05:22:44.548Z,73.43
2019-03-25T05:25:15.185Z,73.28
2019-03-25T05:27:46.804Z,73.60
2019-03-25T05:30:17.450Z,72.16
2019-03-25T05:32:48.108Z,71.58
2019-03-25T05:35:18.775Z,71.59
2019-03-25T05:37:49.463Z,72.37
2019-03-25T05:40:20.147Z,71.57
2019-03-25T05:42:51.825Z,70.58
2019-03-25T05:45:22.464Z,70.94
2019-03-25T05:47:53.111Z,70.72
2019-03-25T05:50:23.734Z,70.25
2019-03-25T05:52:54.712Z,70.26
2019-03-25T05:55:25.944Z,70.24
2019-03-25T05:57:56.945Z,71.62
2019-03-25T06:00:30.706Z,71.25
2019-03-25T06:03:02.013Z,71.55
2019-03-25T06:05:32.630Z,68.71
2019-03-25T06:08:03.553Z,68.28
2019-03-25T06:10:37.396Z,66.42
2019-03-25T06:13:10.443Z,67.61
2019-03-25T06:15:41.072Z,66.03
2019-03-25T06:18:11.732Z,65.11
2019-03-25T06:20:42.365Z,65.72
2019-03-25T06:23:13.013Z,67.02
2019-03-25T06:25:43.909Z,64.82
2019-03-25T06:28:15.535Z,64.38
2019-03-25T06:30:46.407Z,64.58
2019-03-25T06:33:17.071Z,63.80
2019-03-25T06:35:47.725Z,65.72
2019-03-25T06:38:18.365Z,63.32
2019-03-25T06:40:49.566Z,64.15
2019-03-25T06:43:20.224Z,64.05
2019-03-25T06:45:50.840Z,64.44
2019-03-25T06:48:21.798Z,64.48
2019-03-25T06:50:53.408Z,64.54
2019-03-25T06:53:24.885Z,63.96
2019-03-25T06:55:55.511Z,64.53
2019-03-25T06:58:26.423Z,63.87
2019-03-25T07:00:57.059Z,64.71
2019-03-25T07:03:29.808Z,65.14
2019-03-25T07:06:00.082Z,63.95
2019-03-25T07:08:30.734Z,63.35
2019-03-25T07:11:01.363Z,63.13
2019-03-25T07:13:32.653Z,63.01
2019-03-25T07:16:03.280Z,62.53
2019-03-25T07:18:34.212Z,63.19
2019-03-25T07:21:04.817Z,64.30
2019-03-25T07:23:35.478Z,61.44
2019-03-25T07:26:06.111Z,63.28
2019-03-25T07:28:38.632Z,60.85
2019-03-25T07:31:09.141Z,58.19
2019-03-25T07:33:39.820Z,57.61
2019-03-25T07:36:10.435Z,56.83
2019-03-25T07:38:41.107Z,56.84
2019-03-25T07:41:11.755Z,57.01
2019-03-25T07:43:42.434Z,58.63
2019-03-25T07:46:13.065Z,59.12
2019-03-25T07:48:43.744Z,60.55
2019-03-25T07:51:14.391Z,60.15
2019-03-25T07:53:45.050Z,61.05
2019-03-25T07:56:15.715Z,63.28
2019-03-25T07:58:46.406Z,65.54
2019-03-25T08:01:17.124Z,67.74
2019-03-25T08:03:48.023Z,67.40
2019-03-25T08:06:18.633Z,68.31
2019-03-25T08:08:49.312Z,69.08
2019-03-25T08:11:19.913Z,69.09
2019-03-25T08:13:50.601Z,68.63
2019-03-25T08:16:21.682Z,69.24
2019-03-25T08:18:52.695Z,69.83
2019-03-25T08:21:25.100Z,70.85
2019-03-25T08:23:56.715Z,72.03
2019-03-25T08:26:27.329Z,69.52
2019-03-25T08:28:58.963Z,70.92
2019-03-25T08:31:29.952Z,70.84
2019-03-25T08:34:00.625Z,68.51
2019-03-25T08:36:31.275Z,69.75
2019-03-25T08:39:02.005Z,68.43
2019-03-25T08:41:34.303Z,68.06
2019-03-25T08:44:04.984Z,67.55
2019-03-25T08:46:35.848Z,68.16
2019-03-25T08:49:06.526Z,67.00
2019-03-25T08:51:37.169Z,66.62
2019-03-25T08:54:07.810Z,67.04
2019-03-25T08:56:38.444Z,66.46
2019-03-25T08:59:09.097Z,65.81
2019-03-25T09:01:39.740Z,64.77
2019-03-25T09:04:10.393Z,61.05
2019-03-25T09:06:41.282Z,57.04
2019-03-25T09:09:11.919Z,58.30
2019-03-25T09:11:42.829Z,54.83
2019-03-25T09:14:13.490Z,52.21
2019-03-25T09:16:44.383Z,48.29
2019-03-25T09:19:15.338Z,47.94
2019-03-25T09:21:46.218Z,50.01
2019-03-25T09:24:16.984Z,49.17
2019-03-25T09:26:47.626Z,46.35
2019-03-25T09:29:18.331Z,45.84
2019-03-25T09:31:48.963Z,47.57
2019-03-25T09:34:19.753Z,46.44
2019-03-25T09:36:50.375Z,44.76
2019-03-25T09:39:21.301Z,43.58
2019-03-25T09:41:53.563Z,40.68
2019-03-25T09:44:24.266Z,39.73
2019-03-25T09:46:54.898Z,38.46
2019-03-25T09:49:26.799Z,38.29
2019-03-25T09:51:57.452Z,40.52
2019-03-25T09:54:28.372Z,42.80
2019-03-25T09:56:59.059Z,42.71
2019-03-25T09:59:29.762Z,45.08
2019-03-25T10:02:00.408Z,43.28
2019-03-25T10:04:31.060Z,44.12
2019-03-25T10:07:03.376Z,44.59
2019-03-25T10:09:33.943Z,47.63
2019-03-25T10:12:04.788Z,48.69
2019-03-25T10:14:35.609Z,48.94
2019-03-25T10:17:06.244Z,48.80
2019-03-25T10:19:36.902Z,50.10
2019-03-25T10:22:07.528Z,48.86
2019-03-25T10:24:38.259Z,47.94
2019-03-25T10:27:09.123Z,47.24
2019-03-25T10:29:39.808Z,48.75
2019-03-25T10:32:10.442Z,45.95
2019-03-25T10:34:41.164Z,45.47
2019-03-25T10:37:11.856Z,41.55
2019-03-25T10:39:42.490Z,41.58
2019-03-25T10:42:13.172Z,34.64
2019-03-25T10:44:43.831Z,31.17
2019-03-25T10:47:15.324Z,30.20
2019-03-25T10:49:45.973Z,27.67
2019-03-25T10:52:16.625Z,26.37
2019-03-25T10:54:47.348Z,25.39
2019-03-25T10:57:18.060Z,25.27
2019-03-25T10:59:48.720Z,25.57
2019-03-25T11:02:19.359Z,23.37
2019-03-25T11:04:50.352Z,23.75
2019-03-25T11:07:21.511Z,24.76
2019-03-25T11:09:52.104Z,26.18
2019-03-25T11:12:22.775Z,20.38
2019-03-25T11:14:53.799Z,19.05
2019-03-25T11:17:24.746Z,21.71
2019-03-25T11:19:55.419Z,23.92
2019-03-25T11:22:26.050Z,21.52
2019-03-25T11:24:56.723Z,22.93
2019-03-25T11:27:27.346Z,20.89
2019-03-25T11:29:58.016Z,18.09
2019-03-25T11:32:28.655Z,15.26
2019-03-25T11:34:59.312Z,18.94
2019-03-25T11:37:29.953Z,21.61
2019-03-25T11:40:00.997Z,23.37
2019-03-25T11:42:31.627Z,26.88
2019-03-25T11:45:02.284Z,20.95
2019-03-25T11:47:32.895Z,18.83
2019-03-25T11:50:03.814Z,20.30
2019-03-25T11:52:34.464Z,22.36
2019-03-25T11:55:05.463Z,24.78
2019-03-25T11:57:36.087Z,19.38
2019-03-25T12:00:08.542Z,20.57
2019-03-25T12:02:39.236Z,18.50
2019-03-25T12:05:10.104Z,18.60
2019-03-25T12:07:40.746Z,22.33
2019-03-25T12:10:11.986Z,22.91
2019-03-25T12:12:42.611Z,25.25
2019-03-25T12:15:13.499Z,30.12
2019-03-25T12:17:44.471Z,29.80
2019-03-25T12:20:15.331Z,30.92
2019-03-25T12:22:45.978Z,33.01
2019-03-25T12:25:16.652Z,34.92
2019-03-25T12:27:47.268Z,34.97
2019-03-25T12:30:17.952Z,32.89
2019-03-25T12:32:48.597Z,33.62
2019-03-25T12:35:19.504Z,29.72
2019-03-25T12:37:50.152Z,26.82
2019-03-25T12:40:20.810Z,23.37
2019-03-25T12:42:51.446Z,20.04
2019-03-25T12:45:22.258Z,21.35
2019-03-25T12:47:52.891Z,25.20
2019-03-25T12:50:24.564Z,25.60
2019-03-25T12:52:56.734Z,26.81
2019-03-25T12:55:28.181Z,29.62
2019-03-25T12:57:59.365Z,30.39
2019-03-25T13:00:43.182Z,32.35
2019-03-25T13:03:14.242Z,32.33
2019-03-25T13:05:44.907Z,33.53
2019-03-25T13:08:15.698Z,36.98
2019-03-25T13:10:47.342Z,41.05
2019-03-25T13:13:18.296Z,43.77
2019-03-25T13:15:49.351Z,46.27
2019-03-25T13:18:20.064Z,49.18
2019-03-25T13:20:50.723Z,54.31
2019-03-25T13:23:21.354Z,58.23
2019-03-25T13:25:52.000Z,57.20
2019-03-25T13:28:22.638Z,58.09
2019-03-25T13:30:53.539Z,47.48
2019-03-25T13:33:24.582Z,49.33
2019-03-25T13:35:55.222Z,53.21
2019-03-25T13:38:25.874Z,53.29
2019-03-25T13:40:56.778Z,51.32
2019-03-25T13:43:27.895Z,49.18
2019-03-25T13:46:05.308Z,54.87
2019-03-25T13:48:30.908Z,47.53
2019-03-25T13:51:01.540Z,49.67
2019-03-25T13:53:33.496Z,54.34
2019-03-25T13:56:04.131Z,55.83
2019-03-25T13:58:34.772Z,58.38
2019-03-25T14:01:05.518Z,63.21
2019-03-25T14:03:36.440Z,62.04
2019-03-25T14:06:07.555Z,63.74
2019-03-25T14:08:38.195Z,67.74
2019-03-25T14:11:08.887Z,68.43
2019-03-25T14:13:48.707Z,69.54
2019-03-25T14:16:11.949Z,67.06
2019-03-25T14:18:42.586Z,64.84
2019-03-25T14:21:13.246Z,60.32
2019-03-25T14:23:43.872Z,61.67
2019-03-25T14:26:14.548Z,63.51
2019-03-25T14:28:45.179Z,64.88
2019-03-25T14:31:15.854Z,67.25
2019-03-25T14:33:46.509Z,61.15
2019-03-25T14:36:17.166Z,61.04
2019-03-25T14:38:47.786Z,60.73
2019-03-25T14:41:18.677Z,61.35
2019-03-25T14:43:49.567Z,66.50
2019-03-25T14:46:21.222Z,64.56
2019-03-25T14:48:51.855Z,64.91
2019-03-25T14:51:22.490Z,67.40
2019-03-25T14:53:53.102Z,65.51
2019-03-25T14:56:23.750Z,66.35
2019-03-25T14:58:54.386Z,69.73
2019-03-25T15:01:25.187Z,70.49
2019-03-25T15:03:55.836Z,72.04
2019-03-25T15:06:26.476Z,71.66
2019-03-25T15:08:57.109Z,70.78
2019-03-25T15:11:28.153Z,69.71
2019-03-25T15:13:59.158Z,72.78
2019-03-25T15:16:30.036Z,72.00
2019-03-25T15:19:01.032Z,69.71
2019-03-25T15:21:31.810Z,67.64
2019-03-25T15:24:02.442Z,64.38
2019-03-25T15:26:33.147Z,69.00
2019-03-25T15:29:03.768Z,63.95
2019-03-25T15:31:34.475Z,66.22
2019-03-25T15:34:05.393Z,66.97
2019-03-25T15:36:36.669Z,71.78
2019-03-25T15:39:09.280Z,71.02
2019-03-25T15:41:39.926Z,68.57
2019-03-25T15:44:10.559Z,70.59
2019-03-25T15:46:41.292Z,73.63
2019-03-25T15:49:12.005Z,76.03
2019-03-25T15:51:43.866Z,74.76
2019-03-25T15:54:14.607Z,74.91
2019-03-25T15:56:45.252Z,75.37
2019-03-25T15:59:15.897Z,74.91
2019-03-25T16:01:46.903Z,70.47
2019-03-25T16:04:17.911Z,73.16
2019-03-25T16:06:48.603Z,74.36
2019-03-25T16:09:19.676Z,73.27
2019-03-25T16:11:50.311Z,73.44
2019-03-25T16:14:20.938Z,70.92
2019-03-25T16:16:51.855Z,71.25
2019-03-25T16:19:22.518Z,75.83
2019-03-25T16:21:53.159Z,72.57
2019-03-25T16:24:23.807Z,74.13
2019-03-25T16:26:54.463Z,74.52
2019-03-25T16:29:25.157Z,74.86
2019-03-25T16:31:55.830Z,76.50
2019-03-25T16:34:26.851Z,75.23
2019-03-25T16:36:57.519Z,76.55
2019-03-25T16:39:28.225Z,75.34
2019-03-25T16:41:58.916Z,74.49
2019-03-25T16:44:29.541Z,71.57
2019-03-25T16:47:00.630Z,76.46
2019-03-25T16:49:31.330Z,75.70
2019-03-25T16:52:01.976Z,76.09
2019-03-25T16:54:32.692Z,75.01
2019-03-25T16:57:03.356Z,75.05
2019-03-25T16:59:34.320Z,74.16
2019-03-25T17:04:31.591Z,77.46
2019-03-25T17:07:02.237Z,76.46
2019-03-25T17:09:33.269Z,76.87
2019-03-25T17:12:03.905Z,79.31
2019-03-25T17:14:34.750Z,77.56
2019-03-25T17:17:06.725Z,77.55
2019-03-25T17:19:37.469Z,78.18
2019-03-25T17:22:08.114Z,80.01
2019-03-25T17:24:39.182Z,79.66
2019-03-25T17:27:10.065Z,77.10
2019-03-25T17:29:40.726Z,75.41
2019-03-25T17:32:11.663Z,77.56
2019-03-25T17:34:42.555Z,79.24
2019-03-25T17:37:13.219Z,78.70
2019-03-25T17:39:44.140Z,79.00
2019-03-25T17:42:14.808Z,80.18
2019-03-25T17:44:46.059Z,80.09
2019-03-25T17:47:16.725Z,80.22
2019-03-25T17:49:47.369Z,78.31
2019-03-25T17:52:18.046Z,78.95
2019-03-25T17:54:48.676Z,78.12
2019-03-25T17:57:19.334Z,82.64
2019-03-25T17:59:50.229Z,84.25
2019-03-25T18:02:20.877Z,84.04
2019-03-25T18:04:51.629Z,84.51
2019-03-25T18:07:22.284Z,84.95
2019-03-25T18:09:52.915Z,85.11
2019-03-25T18:12:23.589Z,86.68
2019-03-25T18:14:54.239Z,86.54
2019-03-25T18:17:24.939Z,84.90
2019-03-25T18:19:55.521Z,82.88
2019-03-25T18:22:26.230Z,83.66
2019-03-25T18:24:56.845Z,84.71
2019-03-25T18:27:27.582Z,85.76
2019-03-25T18:29:58.287Z,85.91
2019-03-25T18:32:28.915Z,85.74
2019-03-25T18:34:59.597Z,84.19
2019-03-25T18:37:30.300Z,83.26
2019-03-25T18:40:01.207Z,81.92
2019-03-25T18:42:31.955Z,81.96
2019-03-25T18:45:02.636Z,80.72
2019-03-25T18:47:34.998Z,81.49
2019-03-25T18:50:06.011Z,81.49
2019-03-25T18:52:37.036Z,82.46
2019-03-25T18:55:07.964Z,84.54
2019-03-25T18:57:38.676Z,83.98
2019-03-25T19:00:10.255Z,82.06
2019-03-25T19:02:41.044Z,85.14
2019-03-25T19:05:11.921Z,85.70
2019-03-25T19:07:45.534Z,86.30
2019-03-25T19:10:20.920Z,86.19
2019-03-25T19:12:51.618Z,85.50
2019-03-25T19:15:22.321Z,83.14
2019-03-25T19:17:53.848Z,83.44
2019-03-25T19:20:27.112Z,80.49
2019-03-25T19:22:57.788Z,81.13
2019-03-25T19:25:28.421Z,80.75
2019-03-25T19:28:00.063Z,78.69
2019-03-25T19:30:30.739Z,80.49
2019-03-25T19:33:01.791Z,80.06
2019-03-25T19:35:32.473Z,79.22
2019-03-25T19:38:03.219Z,78.61
2019-03-25T19:40:33.820Z,77.73
2019-03-25T19:43:04.565Z,77.39
2019-03-25T19:45:35.994Z,77.83
2019-03-25T19:48:06.624Z,81.09
2019-03-25T19:50:37.226Z,79.04
2019-03-25T19:53:18.604Z,80.14
2019-03-25T19:55:40.750Z,78.71
2019-03-25T19:58:11.489Z,78.70
2019-03-25T20:00:42.576Z,80.50
2019-03-25T20:03:13.234Z,78.71
2019-03-25T20:05:43.841Z,78.74
2019-03-25T20:08:14.635Z,78.46
2019-03-25T20:10:45.315Z,81.19
2019-03-25T20:13:15.953Z,82.32
2019-03-25T20:15:47.035Z,83.13
2019-03-25T20:18:17.703Z,83.31
2019-03-25T20:20:48.344Z,82.00
2019-03-25T20:23:19.010Z,82.86
2019-03-25T20:25:49.659Z,83.99
2019-03-25T20:28:20.285Z,83.76
2019-03-25T20:30:50.915Z,82.23
2019-03-25T20:33:21.646Z,81.50
2019-03-25T20:35:52.317Z,80.77
2019-03-25T20:38:23.244Z,81.39
2019-03-25T20:40:54.588Z,81.74
2019-03-25T20:43:25.686Z,81.57
2019-03-25T20:45:56.385Z,82.48
2019-03-25T20:48:27.040Z,80.49
2019-03-25T20:50:57.661Z,80.86
2019-03-25T20:53:28.460Z,81.81
2019-03-25T20:55:59.115Z,81.64
2019-03-25T20:58:29.873Z,82.30
2019-03-25T21:01:00.542Z,81.78
2019-03-25T21:03:31.346Z,81.80
2019-03-25T21:06:01.981Z,79.46
2019-03-25T21:08:32.880Z,79.09
2019-03-25T21:11:03.769Z,79.92
2019-03-25T21:13:35.263Z,79.91
2019-03-25T21:16:05.883Z,82.72
2019-03-25T21:18:36.566Z,81.55
2019-03-25T21:21:07.488Z,82.55
2019-03-25T21:23:38.248Z,83.67
2019-03-25T21:26:10.993Z,82.32
2019-03-25T21:28:41.199Z,82.66
2019-03-25T21:31:11.882Z,81.18
2019-03-25T21:33:42.545Z,81.17
2019-03-25T21:36:13.265Z,80.35
2019-03-25T21:38:44.386Z,79.91
2019-03-25T21:41:15.043Z,79.85
2019-03-25T21:43:45.763Z,79.52
2019-03-25T21:46:16.323Z,80.57
2019-03-25T21:48:46.980Z,80.46
2019-03-25T21:51:17.625Z,82.10
2019-03-25T21:53:48.346Z,80.68
2019-03-25T21:56:19.098Z,80.60
2019-03-25T21:58:49.964Z,78.84
2019-03-25T22:01:20.587Z,79.53
2019-03-25T22:03:51.287Z,78.34
2019-03-25T22:06:21.923Z,78.32
2019-03-25T22:08:52.694Z,80.79
2019-03-25T22:11:23.325Z,81.18
2019-03-25T22:13:53.968Z,83.42
2019-03-25T22:16:24.623Z,83.42
2019-03-25T22:18:55.267Z,83.26
2019-03-25T22:21:25.889Z,82.19
2019-03-25T22:23:56.636Z,82.86
2019-03-25T22:26:27.273Z,84.16
2019-03-25T22:28:58.004Z,84.41
2019-03-25T22:31:28.640Z,82.18
2019-03-25T22:33:59.266Z,81.87
2019-03-25T22:36:29.910Z,81.44
2019-03-25T22:39:00.631Z,82.33
2019-03-25T22:41:31.411Z,80.40
2019-03-25T22:44:02.400Z,79.56
2019-03-25T22:46:33.082Z,78.53
2019-03-25T22:49:04.040Z,78.28
2019-03-25T22:51:35.004Z,80.59
2019-03-25T22:54:06.089Z,79.61
2019-03-25T22:56:36.698Z,80.30
2019-03-25T22:59:07.364Z,79.72
2019-03-25T23:01:38.831Z,79.11
2019-03-25T23:04:09.485Z,79.14
2019-03-25T23:06:41.088Z,79.81
2019-03-25T23:09:11.756Z,80.70
2019-03-25T23:11:42.399Z,82.13
2019-03-25T23:14:13.071Z,83.16
2019-03-25T23:16:44.849Z,82.96
2019-03-25T23:19:15.739Z,82.39
2019-03-25T23:21:46.638Z,84.11
2019-03-25T23:24:17.327Z,83.55
2019-03-25T23:26:48.259Z,82.98
2019-03-25T23:29:18.944Z,80.64
2019-03-25T23:31:49.897Z,79.85
2019-03-25T23:34:20.615Z,79.67
2019-03-25T23:36:51.569Z,79.71
2019-03-25T23:39:25.097Z,78.33
2019-03-25T23:41:54.887Z,78.11
2019-03-25T23:44:25.548Z,77.35
2019-03-25T23:46:56.161Z,77.65
2019-03-25T23:49:27.416Z,77.94
2019-03-25T23:51:58.047Z,80.21
2019-03-25T23:54:28.703Z,78.59
2019-03-25T23:56:59.336Z,78.33
2019-03-25T23:59:29.983Z,77.56
